首页
METAR-TAF:

METAR-TAF

机场 :

特鲁瓦, 法国

纬度: 48-20N, 经度: 004-01E, 海拔: 118米

当前天气观测

该预报发布于14分钟前的19:30 UTC
风速3节,风向,在北转西北东北之间变化
温度 17°C
湿度 63%
气压 1018 hPa
能见度10公里或以上
1500米以下无云,无积雨云

METAR: LFQB 211930Z AUTO 01003KT 340V050 CAVOK 17/10 Q1018

时间: 21:44 (19:44 UTC)


TAF: 丢失

超过4000个机场的气象观测和天气预报(METAR&TAF报告)。

可查询的气象台以黄色和红色小点在地图上表示。

将鼠标移到小点上方,可查看气象台名称。

然后点击查看天气观测和预报。

如需切换地图:点击带黑十字的绿色按钮放大地图;点击带横线的绿色按钮缩小地图;或者点击绿色箭头查看邻近地区的地图。


METAR-TAF: